<?xml version="1.0" encoding="utf-8"?>
<gpx xmlns:xsi="http://www.w3.org/2001/XMLSchema-instance" xmlns:xsd="http://www.w3.org/2001/XMLSchema" version="1.1" creator="Shapelink.com" xmlns="http://www.topografix.com/GPX/1/1" xmlns:gpxtpx="http://www.garmin.com/xmlschemas/TrackPointExtension/v1">
  <metadata>
    <name>Övrigt 3.52 km, 2020-06-11</name>
    <desc></desc>
    <author><name>Marian Moron</name></author> 
    <time>2020-06-11T19:36:24Z</time>
  </metadata>
  <trk>
    <name>Övrigt 3.52 km, 2020-06-11</name>
    <trkseg>
      <trkpt lat="51.228896823363" lon="4.448708093325">
        <ele>11.4</ele>
        <time>2020-06-11T19:36:24Z</time>
      </trkpt>
      <trkpt lat="51.229039483301" lon="4.448510196666">
        <ele>11.4</ele>
        <time>2020-06-11T19:36:48Z</time>
      </trkpt>
      <trkpt lat="51.229170827674" lon="4.44856937288">
        <ele>11</ele>
        <time>2020-06-11T19:37:03Z</time>
      </trkpt>
      <trkpt lat="51.229454135894" lon="4.449086200834">
        <ele>10.6</ele>
        <time>2020-06-11T19:37:46Z</time>
      </trkpt>
      <trkpt lat="51.229545582423" lon="4.449786592398">
        <ele>10.2</ele>
        <time>2020-06-11T19:38:34Z</time>
      </trkpt>
      <trkpt lat="51.229640381712" lon="4.45049218074">
        <ele>10.4</ele>
        <time>2020-06-11T19:39:22Z</time>
      </trkpt>
      <trkpt lat="51.229781197632" lon="4.451166756052">
        <ele>9</ele>
        <time>2020-06-11T19:40:08Z</time>
      </trkpt>
      <trkpt lat="51.229912542005" lon="4.451856167327">
        <ele>8</ele>
        <time>2020-06-11T19:40:50Z</time>
      </trkpt>
      <trkpt lat="51.230036007392" lon="4.452553709045">
        <ele>8.6</ele>
        <time>2020-06-11T19:41:33Z</time>
      </trkpt>
      <trkpt lat="51.230141032599" lon="4.453266170545">
        <ele>12.8</ele>
        <time>2020-06-11T19:42:17Z</time>
      </trkpt>
      <trkpt lat="51.230254020611" lon="4.453961281512">
        <ele>12.6</ele>
        <time>2020-06-11T19:43:04Z</time>
      </trkpt>
      <trkpt lat="51.230352591755" lon="4.454381885254">
        <ele>12.2</ele>
        <time>2020-06-11T19:43:35Z</time>
      </trkpt>
      <trkpt lat="51.230286877659" lon="4.455061573525">
        <ele>7</ele>
        <time>2020-06-11T19:44:25Z</time>
      </trkpt>
      <trkpt lat="51.230327278417" lon="4.45512569506">
        <ele>7.2</ele>
        <time>2020-06-11T19:44:32Z</time>
      </trkpt>
      <trkpt lat="51.230683341529" lon="4.45556406843">
        <ele>16</ele>
        <time>2020-06-11T19:45:18Z</time>
      </trkpt>
      <trkpt lat="51.230988107413" lon="4.456047033508">
        <ele>19.6</ele>
        <time>2020-06-11T19:46:03Z</time>
      </trkpt>
      <trkpt lat="51.230993890924" lon="4.456066563335">
        <ele>18.2</ele>
        <time>2020-06-11T19:46:05Z</time>
      </trkpt>
      <trkpt lat="51.231000177349" lon="4.456095732347">
        <ele>16.4</ele>
        <time>2020-06-11T19:46:08Z</time>
      </trkpt>
      <trkpt lat="51.230713181093" lon="4.456248785841">
        <ele>10.8</ele>
        <time>2020-06-11T19:46:38Z</time>
      </trkpt>
      <trkpt lat="51.23027589737" lon="4.456427907044">
        <ele>14.8</ele>
        <time>2020-06-11T19:47:19Z</time>
      </trkpt>
      <trkpt lat="51.229861999148" lon="4.45660510041">
        <ele>17.2</ele>
        <time>2020-06-11T19:48:05Z</time>
      </trkpt>
      <trkpt lat="51.229831572851" lon="4.457030565654">
        <ele>8.6</ele>
        <time>2020-06-11T19:48:40Z</time>
      </trkpt>
      <trkpt lat="51.229876332197" lon="4.457745960819">
        <ele>10.4</ele>
        <time>2020-06-11T19:49:19Z</time>
      </trkpt>
      <trkpt lat="51.229514653212" lon="4.45799649581">
        <ele>17.8</ele>
        <time>2020-06-11T20:09:43Z</time>
      </trkpt>
      <trkpt lat="51.229363443736" lon="4.458125074156">
        <ele>13.8</ele>
        <time>2020-06-11T20:10:00Z</time>
      </trkpt>
      <trkpt lat="51.228910653498" lon="4.458186262026">
        <ele>5.2</ele>
        <time>2020-06-11T20:10:35Z</time>
      </trkpt>
      <trkpt lat="51.228616616446" lon="4.45833763914">
        <ele>2.6</ele>
        <time>2020-06-11T20:10:56Z</time>
      </trkpt>
      <trkpt lat="51.228595494058" lon="4.458469570246">
        <ele>2</ele>
        <time>2020-06-11T20:11:02Z</time>
      </trkpt>
      <trkpt lat="51.22851988932" lon="4.458529500831">
        <ele>2</ele>
        <time>2020-06-11T20:11:08Z</time>
      </trkpt>
      <trkpt lat="51.228536150206" lon="4.458709963138">
        <ele>1.2</ele>
        <time>2020-06-11T20:11:19Z</time>
      </trkpt>
      <trkpt lat="51.228563810476" lon="4.459036773419">
        <ele>3</ele>
        <time>2020-06-11T20:11:34Z</time>
      </trkpt>
      <trkpt lat="51.228513770533" lon="4.459181528832">
        <ele>5.2</ele>
        <time>2020-06-11T20:11:53Z</time>
      </trkpt>
      <trkpt lat="51.228406901308" lon="4.459525522008">
        <ele>5.6</ele>
        <time>2020-06-11T20:12:17Z</time>
      </trkpt>
      <trkpt lat="51.228323585222" lon="4.460228344323">
        <ele>5.6</ele>
        <time>2020-06-11T20:12:55Z</time>
      </trkpt>
      <trkpt lat="51.228339594651" lon="4.460540486279">
        <ele>4.8</ele>
        <time>2020-06-11T20:14:06Z</time>
      </trkpt>
      <trkpt lat="51.228487954281" lon="4.46095865927">
        <ele>6.8</ele>
        <time>2020-06-11T20:14:30Z</time>
      </trkpt>
      <trkpt lat="51.228505053357" lon="4.461000820227">
        <ele>7.2</ele>
        <time>2020-06-11T20:14:34Z</time>
      </trkpt>
      <trkpt lat="51.228533048903" lon="4.461040382795">
        <ele>7.4</ele>
        <time>2020-06-11T20:14:37Z</time>
      </trkpt>
      <trkpt lat="51.228675038289" lon="4.461110790755">
        <ele>9.4</ele>
        <time>2020-06-11T20:14:54Z</time>
      </trkpt>
      <trkpt lat="51.22908734395" lon="4.461354117312">
        <ele>25.6</ele>
        <time>2020-06-11T20:15:36Z</time>
      </trkpt>
      <trkpt lat="51.22933209543" lon="4.461129314754">
        <ele>16.4</ele>
        <time>2020-06-11T20:15:57Z</time>
      </trkpt>
      <trkpt lat="51.229421111208" lon="4.461081621743">
        <ele>11</ele>
        <time>2020-06-11T20:16:04Z</time>
      </trkpt>
      <trkpt lat="51.229678184081" lon="4.461127722193">
        <ele>5</ele>
        <time>2020-06-11T20:16:33Z</time>
      </trkpt>
      <trkpt lat="51.229701401944" lon="4.461124117976">
        <ele>4.8</ele>
        <time>2020-06-11T20:16:36Z</time>
      </trkpt>
      <trkpt lat="51.229776419949" lon="4.461227634441">
        <ele>4.4</ele>
        <time>2020-06-11T20:16:47Z</time>
      </trkpt>
      <trkpt lat="51.229920001896" lon="4.461911765119">
        <ele>0</ele>
        <time>2020-06-11T20:17:40Z</time>
      </trkpt>
      <trkpt lat="51.229939615542" lon="4.461959122854">
        <ele>0</ele>
        <time>2020-06-11T20:17:43Z</time>
      </trkpt>
      <trkpt lat="51.230007173656" lon="4.462203790515">
        <ele>0</ele>
        <time>2020-06-11T20:18:04Z</time>
      </trkpt>
      <trkpt lat="51.230117982374" lon="4.462586508069">
        <ele>1</ele>
        <time>2020-06-11T20:18:37Z</time>
      </trkpt>
      <trkpt lat="51.230300791613" lon="4.463253204395">
        <ele>6</ele>
        <time>2020-06-11T20:19:26Z</time>
      </trkpt>
      <trkpt lat="51.230334067756" lon="4.46341539416">
        <ele>5.4</ele>
        <time>2020-06-11T20:19:45Z</time>
      </trkpt>
      <trkpt lat="51.230549817862" lon="4.464062393021">
        <ele>0</ele>
        <time>2020-06-11T20:20:19Z</time>
      </trkpt>
      <trkpt lat="51.230675127267" lon="4.4645855074">
        <ele>0</ele>
        <time>2020-06-11T20:20:48Z</time>
      </trkpt>
      <trkpt lat="51.230790797487" lon="4.464611910385">
        <ele>0</ele>
        <time>2020-06-11T20:21:03Z</time>
      </trkpt>
      <trkpt lat="51.231219447853" lon="4.464373948244">
        <ele>9.6</ele>
        <time>2020-06-11T20:21:43Z</time>
      </trkpt>
      <trkpt lat="51.231271247995" lon="4.464412504984">
        <ele>9.6</ele>
        <time>2020-06-11T20:21:48Z</time>
      </trkpt>
      <trkpt lat="51.231534942569" lon="4.46472045599">
        <ele>0</ele>
        <time>2020-06-11T20:22:17Z</time>
      </trkpt>
      <trkpt lat="51.231906679834" lon="4.465132174918">
        <ele>2.6</ele>
        <time>2020-06-11T20:22:51Z</time>
      </trkpt>
      <trkpt lat="51.231807438138" lon="4.46562402481">
        <ele>5</ele>
        <time>2020-06-11T20:24:40Z</time>
      </trkpt>
      <trkpt lat="51.231737533092" lon="4.465739024478">
        <ele>7.6</ele>
        <time>2020-06-11T20:24:52Z</time>
      </trkpt>
      <trkpt lat="51.231638375215" lon="4.465994337152">
        <ele>14.6</ele>
        <time>2020-06-11T20:25:09Z</time>
      </trkpt>
      <trkpt lat="51.23151893314" lon="4.466305054185">
        <ele>17</ele>
        <time>2020-06-11T20:25:34Z</time>
      </trkpt>
      <trkpt lat="51.231346852733" lon="4.466569419311">
        <ele>4.6</ele>
        <time>2020-06-11T20:26:13Z</time>
      </trkpt>
      <trkpt lat="51.231074776259" lon="4.466325841297">
        <ele>7.4</ele>
        <time>2020-06-11T20:26:43Z</time>
      </trkpt>
      <trkpt lat="51.230949885949" lon="4.466281584865">
        <ele>4.6</ele>
        <time>2020-06-11T20:26:57Z</time>
      </trkpt>
      <trkpt lat="51.230726508314" lon="4.466310921515">
        <ele>4.2</ele>
        <time>2020-06-11T20:27:19Z</time>
      </trkpt>
      <trkpt lat="51.230663727883" lon="4.46619818496">
        <ele>4.4</ele>
        <time>2020-06-11T20:27:33Z</time>
      </trkpt>
      <trkpt lat="51.230707481401" lon="4.465476587189">
        <ele>1.2</ele>
        <time>2020-06-11T20:28:18Z</time>
      </trkpt>
      <trkpt lat="51.230685437004" lon="4.465045422253">
        <ele>0.8</ele>
        <time>2020-06-11T20:28:54Z</time>
      </trkpt>
      <trkpt lat="51.230506064344" lon="4.464380402307">
        <ele>0</ele>
        <time>2020-06-11T20:29:43Z</time>
      </trkpt>
      <trkpt lat="51.230461640274" lon="4.464274622729">
        <ele>0</ele>
        <time>2020-06-11T20:29:52Z</time>
      </trkpt>
      <trkpt lat="51.230218313717" lon="4.4639233373">
        <ele>3</ele>
        <time>2020-06-11T20:30:50Z</time>
      </trkpt>
      <trkpt lat="51.230111695949" lon="4.464041605909">
        <ele>3.4</ele>
        <time>2020-06-11T20:31:04Z</time>
      </trkpt>
      <trkpt lat="51.230019914144" lon="4.46424687864">
        <ele>4.8</ele>
        <time>2020-06-11T20:31:34Z</time>
      </trkpt>
      <trkpt lat="51.229740629236" lon="4.464249309391">
        <ele>8.4</ele>
        <time>2020-06-11T20:33:18Z</time>
      </trkpt>
      <trkpt lat="51.229712214595" lon="4.464238664378">
        <ele>9</ele>
        <time>2020-06-11T20:33:20Z</time>
      </trkpt>
      <trkpt lat="51.229563603508" lon="4.464257188377">
        <ele>3.8</ele>
        <time>2020-06-11T20:34:05Z</time>
      </trkpt>
      <trkpt lat="51.229113579297" lon="4.464345617422">
        <ele>9.6</ele>
        <time>2020-06-11T20:34:56Z</time>
      </trkpt>
      <trkpt lat="51.228954239378" lon="4.46440445836">
        <ele>12.8</ele>
        <time>2020-06-11T20:35:20Z</time>
      </trkpt>
      <trkpt lat="51.228767909741" lon="4.464448379516">
        <ele>4.2</ele>
        <time>2020-06-11T20:35:49Z</time>
      </trkpt>
      <trkpt lat="51.228698842885" lon="4.464642588139">
        <ele>0</ele>
        <time>2020-06-11T20:36:30Z</time>
      </trkpt>
      <trkpt lat="51.228710493726" lon="4.464769238648">
        <ele>0</ele>
        <time>2020-06-11T20:36:41Z</time>
      </trkpt>
      <trkpt lat="51.228742261127" lon="4.465137706972">
        <ele>1.8</ele>
        <time>2020-06-11T20:37:16Z</time>
      </trkpt>
      <trkpt lat="51.228744272783" lon="4.465210964778">
        <ele>2.2</ele>
        <time>2020-06-11T20:37:21Z</time>
      </trkpt>
      <trkpt lat="51.228553752196" lon="4.465850252291">
        <ele>2.2</ele>
        <time>2020-06-11T20:38:04Z</time>
      </trkpt>
      <trkpt lat="51.228267175035" lon="4.466108079535">
        <ele>1.8</ele>
        <time>2020-06-11T20:38:36Z</time>
      </trkpt>
      <trkpt lat="51.227865514387" lon="4.466250655654">
        <ele>9.4</ele>
        <time>2020-06-11T20:39:20Z</time>
      </trkpt>
      <trkpt lat="51.22786107198" lon="4.465959552267">
        <ele>4.2</ele>
        <time>2020-06-11T20:39:40Z</time>
      </trkpt>
      <trkpt lat="51.227899712539" lon="4.465765595101">
        <ele>2.6</ele>
        <time>2020-06-11T20:40:07Z</time>
      </trkpt>
      <trkpt lat="51.22794489098" lon="4.465656881858">
        <ele>6.8</ele>
        <time>2020-06-11T20:40:16Z</time>
      </trkpt>
      <trkpt lat="51.227928630094" lon="4.465472899153">
        <ele>7</ele>
        <time>2020-06-11T20:40:29Z</time>
      </trkpt>
      <trkpt lat="51.22788537949" lon="4.464761694938">
        <ele>9.8</ele>
        <time>2020-06-11T20:41:08Z</time>
      </trkpt>
      <trkpt lat="51.227796363712" lon="4.464047808515">
        <ele>2.2</ele>
        <time>2020-06-11T20:41:49Z</time>
      </trkpt>
      <trkpt lat="51.227770212184" lon="4.463957367814">
        <ele>0</ele>
        <time>2020-06-11T20:41:57Z</time>
      </trkpt>
      <trkpt lat="51.227688656297" lon="4.463257562983">
        <ele>0</ele>
        <time>2020-06-11T20:42:34Z</time>
      </trkpt>
      <trkpt lat="51.227631910834" lon="4.462936536213">
        <ele>0.2</ele>
        <time>2020-06-11T20:43:10Z</time>
      </trkpt>
      <trkpt lat="51.227515486243" lon="4.46223689902">
        <ele>0.6</ele>
        <time>2020-06-11T20:43:52Z</time>
      </trkpt>
      <trkpt lat="51.227442563713" lon="4.461676317548">
        <ele>1</ele>
        <time>2020-06-11T20:44:35Z</time>
      </trkpt>
      <trkpt lat="51.227340304533" lon="4.461213301392">
        <ele>3.2</ele>
        <time>2020-06-11T20:45:06Z</time>
      </trkpt>
      <trkpt lat="51.227394870702" lon="4.460728324658">
        <ele>4.2</ele>
        <time>2020-06-11T20:45:43Z</time>
      </trkpt>
      <trkpt lat="51.227309123865" lon="4.460529422171">
        <ele>7.6</ele>
        <time>2020-06-11T20:46:00Z</time>
      </trkpt>
      <trkpt lat="51.227187334858" lon="4.459824672019">
        <ele>9.6</ele>
        <time>2020-06-11T20:46:43Z</time>
      </trkpt>
      <trkpt lat="51.227034365183" lon="4.459192090026">
        <ele>7</ele>
        <time>2020-06-11T20:47:31Z</time>
      </trkpt>
      <trkpt lat="51.22704299854" lon="4.459182031746">
        <ele>7</ele>
        <time>2020-06-11T20:47:32Z</time>
      </trkpt>
      <trkpt lat="51.227061354901" lon="4.459165519403">
        <ele>6.8</ele>
        <time>2020-06-11T20:47:34Z</time>
      </trkpt>
      <trkpt lat="51.22724500233" lon="4.458997378489">
        <ele>13</ele>
        <time>2020-06-11T20:48:13Z</time>
      </trkpt>
      <trkpt lat="51.227671138126" lon="4.458774168492">
        <ele>18</ele>
        <time>2020-06-11T20:48:57Z</time>
      </trkpt>
      <trkpt lat="51.228108170392" lon="4.458540397301">
        <ele>15.6</ele>
        <time>2020-06-11T20:49:35Z</time>
      </trkpt>
      <trkpt lat="51.22848300896" lon="4.458240241462">
        <ele>3.6</ele>
        <time>2020-06-11T20:50:25Z</time>
      </trkpt>
      <trkpt lat="51.228539000052" lon="4.457875125898">
        <ele>4.2</ele>
        <time>2020-06-11T20:51:28Z</time>
      </trkpt>
      <trkpt lat="51.228595996972" lon="4.457968584083">
        <ele>1.6</ele>
        <time>2020-06-11T20:51:41Z</time>
      </trkpt>
      <trkpt lat="51.22867998361" lon="4.458244683869">
        <ele>4.4</ele>
        <time>2020-06-11T20:52:06Z</time>
      </trkpt>
      <trkpt lat="51.229110980908" lon="4.458021138596">
        <ele>4.4</ele>
        <time>2020-06-11T20:52:49Z</time>
      </trkpt>
      <trkpt lat="51.229336370199" lon="4.45798140839">
        <ele>7.4</ele>
        <time>2020-06-11T20:53:14Z</time>
      </trkpt>
    </trkseg>
  </trk>
</gpx>